logo
Rechercher aéroport 
image banner adimage banner adimage banner ad
image banner ad

ZMAT - Gobi-Altai/Altai

Situé à Yesunbulag, Mongolia

ICAO - ZMAT, IATA - LTI

Données fournies par Airmate  

Information générale

Coordonnées: N46°22'37" E96°13'2"
Élévation : 7276 feet MSL.
 
Voir autres Aéroports à Govi-Altay

Données opérationnelles

Special qualification required
Heure actuelle UTC:
Heure actuelle locale:
Météo à : - ( 0 km )
METAR: UUWW 171736Z 13006MPS 9999 -SHRA BKN030CB 19/17 Q1008 R06/290247 TEMPO VRB18MPS 1000 TSRA SQ BKN010CB
Voir NOTAMs / SUP AIP / TFR affectant cet aéroport [VIEW]
Fréquences de communication: [VIEW]

Pistes:

Identifiant RWYQFULongueur (ft)Largeur (ft)SurfaceLDA (ft)
10G104°00UNK
28G284°00UNK
10104°951198UNK
28284°951198UNK

Coordonnées de l'aéroport

Adresse: Yesunbulag Mongolia

Vue satellite de ZMAT